KRNO/RNO METAR and TAF weather

Enter ICAO airport designator
Station Type Date Time Source
KRNO METAR 2022/12/08 11:55 UTC NOAA

KRNO 081155Z 00000KT 10SM FEW080 FEW200 M06/M09 A3023 RMK AO2 SLP248 T10611089 11017 21061 50003


Station Type Date Time Source
KRNO Decoded METAR 2022/12/08 11:55 UTC NOAA

RENO/TAHOE INTERNATIONAL AIRPORT, NV, United States (KRNO) 39-29N 119-46W 1342M
Dec 08, 2022 - 06:55 AM EST / 2022.12.08 1155 UTC
Wind: Calm:0
Visibility: 10 mile(s):0
Sky conditions: mostly clear
Temperature: 21.0 F (-6.1 C)
Dew Point: 16.0 F (-8.9 C)
Relative Humidity: 80%
Pressure (altimeter): 30.23 in. Hg (1023 hPa)
Pressure tendency: 0.01 inches (0.3 hPa) higher than three hours ago
ob: KRNO 081155Z 00000KT 10SM FEW080 FEW200 M06/M09 A3023 RMK AO2 SLP248 T10611089 11017 21061 50003
cycle: 12

Station Type Date Time Source
KRNO TAF 2022/12/08 12:22 UTC NOAA

TAF KRNO 081120Z 0812/0912 VRB02KT P6SM SKC
FM082000 18008KT P6SM SCT140 BKN200
FM090200 16011KT P6SM SCT070 BKN140 WS020/22035KT
FM090600 17017G26KT P6SM VCSH SCT040 BKN080 WS020/23045KT

Example: see airport list